Time;durP1;ratioP1;P1;durP2;ratioP2;P2;SDS_P1;SDS_P2;PMS_P1;PMS_P2;Temp;Humidity;BMP_temperature;BMP_pressure;BME280_temperature;BME280_humidity;BME280_pressure;Samples;Min_cycle;Max_cycle;Signal;HPM_P1;HPM_P2
2021/12/27 00:00:15;;;;;;;23.45;11.95;;;-0.70;99.90;;;;;;5031443;28;20056;-81
2021/12/27 00:02:42;;;;;;;22.15;11.30;;;-0.70;99.90;;;;;;5031025;28;20432;-81
2021/12/27 00:05:08;;;;;;;26.30;12.60;;;-0.70;99.90;;;;;;5031664;28;20056;-81
2021/12/27 00:07:34;;;;;;;22.15;10.80;;;-0.70;99.90;;;;;;5031498;28;20824;-80
2021/12/27 00:10:03;;;;;;;24.85;12.35;;;-0.70;99.90;;;;;;5031105;28;20045;-81
2021/12/27 00:12:28;;;;;;;20.05;11.40;;;-0.70;99.90;;;;;;5031038;28;20059;-80
2021/12/27 00:14:54;;;;;;;21.05;11.23;;;-0.70;99.90;;;;;;5030426;28;20045;-80
2021/12/27 00:17:19;;;;;;;20.40;11.18;;;-0.70;99.90;;;;;;5013100;28;20073;-81
2021/12/27 00:19:47;;;;;;;22.30;12.48;;;-0.70;99.90;;;;;;5013782;28;20045;-80
2021/12/27 00:22:12;;;;;;;23.88;12.20;;;-0.70;99.90;;;;;;5031095;28;20043;-80
2021/12/27 00:24:38;;;;;;;21.73;11.63;;;-0.70;99.90;;;;;;5029493;28;20084;-80
2021/12/27 00:27:04;;;;;;;21.42;11.65;;;-0.70;99.90;;;;;;5031115;28;20045;-81
2021/12/27 00:29:30;;;;;;;21.85;11.65;;;-0.70;99.90;;;;;;5012780;28;20075;-80
2021/12/27 00:31:55;;;;;;;23.30;12.10;;;-0.70;99.90;;;;;;5012670;28;20051;-81
2021/12/27 00:34:21;;;;;;;19.98;11.45;;;-0.70;99.90;;;;;;5031040;28;20396;-80
2021/12/27 00:36:47;;;;;;;22.27;11.93;;;-0.70;99.90;;;;;;5031004;28;20046;-80
2021/12/27 00:39:12;;;;;;;25.83;12.13;;;-0.70;99.90;;;;;;5031189;28;20076;-81
2021/12/27 00:41:38;;;;;;;22.83;11.40;;;-0.80;99.90;;;;;;5030776;28;20041;-80
2021/12/27 00:44:04;;;;;;;20.75;11.52;;;-0.70;99.90;;;;;;5013044;28;20519;-81
2021/12/27 00:46:30;;;;;;;21.25;10.88;;;-0.80;99.90;;;;;;5031215;28;20052;-80
2021/12/27 00:48:55;;;;;;;20.40;11.48;;;-0.70;99.90;;;;;;5031072;28;20043;-80
2021/12/27 00:51:21;;;;;;;20.92;11.05;;;-0.70;99.90;;;;;;5013070;28;20429;-81
2021/12/27 00:53:47;;;;;;;20.42;11.35;;;-0.80;99.90;;;;;;5030662;28;20045;-81
2021/12/27 00:56:12;;;;;;;24.17;12.52;;;-0.80;99.90;;;;;;5030569;28;20059;-82
2021/12/27 00:58:38;;;;;;;22.75;12.18;;;-0.80;99.90;;;;;;5030759;28;20196;-80
2021/12/27 01:01:04;;;;;;;21.58;11.80;;;-0.80;99.90;;;;;;5031438;28;20057;-80
2021/12/27 01:03:30;;;;;;;21.83;12.10;;;-0.80;99.90;;;;;;5032202;28;20504;-80
2021/12/27 01:05:55;;;;;;;21.60;11.48;;;-0.80;99.90;;;;;;5017113;28;20041;-80
2021/12/27 01:08:21;;;;;;;24.15;13.10;;;-0.80;99.90;;;;;;5033448;28;20104;-81
2021/12/27 01:11:10;;;;;;;20.73;11.38;;;-0.90;99.90;;;;;;5034769;28;20073;-80
2021/12/27 01:13:40;;;;;;;20.60;11.57;;;-0.80;99.90;;;;;;5016992;28;20129;-80
2021/12/27 01:18:34;;;;;;;23.45;12.73;;;-0.90;99.90;;;;;;5016727;28;20049;-80
2021/12/27 01:21:00;;;;;;;22.38;12.02;;;-0.90;99.90;;;;;;5034626;28;20134;-81
2021/12/27 01:23:27;;;;;;;23.52;12.60;;;-0.90;99.90;;;;;;5016977;28;20056;-80
2021/12/27 01:25:53;;;;;;;22.50;12.45;;;-0.90;99.90;;;;;;5034338;28;20041;-82
2021/12/27 01:28:19;;;;;;;21.98;12.25;;;-0.90;99.90;;;;;;5034009;28;20547;-82
2021/12/27 01:30:48;;;;;;;23.98;11.70;;;-0.90;99.90;;;;;;5033895;28;20053;-80
2021/12/27 01:33:16;;;;;;;19.88;11.45;;;-1.00;99.90;;;;;;5034121;28;20059;-81
2021/12/27 01:35:42;;;;;;;23.25;11.82;;;-0.90;99.90;;;;;;5016526;28;20053;-81
2021/12/27 01:38:08;;;;;;;20.90;12.55;;;-1.00;99.90;;;;;;5032879;28;20049;-81
2021/12/27 01:40:34;;;;;;;23.33;12.75;;;-1.00;99.90;;;;;;5016331;28;20144;-81
2021/12/27 01:43:00;;;;;;;23.45;12.40;;;-1.00;99.90;;;;;;5033757;28;20124;-80
2021/12/27 01:45:26;;;;;;;22.55;12.77;;;-1.00;99.90;;;;;;5016185;28;20057;-80
2021/12/27 01:47:52;;;;;;;24.92;12.73;;;-1.00;99.90;;;;;;5034012;28;20534;-80
2021/12/27 01:50:18;;;;;;;24.02;12.40;;;-0.90;99.90;;;;;;5034271;28;20049;-80
2021/12/27 01:52:43;;;;;;;23.02;12.73;;;-0.90;99.90;;;;;;5033653;28;20049;-80
2021/12/27 01:55:09;;;;;;;22.83;13.20;;;-1.10;99.90;;;;;;5034007;28;20091;-80
2021/12/27 01:57:35;;;;;;;25.33;12.95;;;-0.90;99.90;;;;;;5033892;28;20053;-80
2021/12/27 02:00:01;;;;;;;23.33;13.07;;;-1.00;99.90;;;;;;5032062;28;20045;-81
2021/12/27 02:02:26;;;;;;;24.13;12.60;;;-0.90;99.90;;;;;;5034081;28;20050;-81
2021/12/27 02:04:52;;;;;;;23.35;12.00;;;-0.90;99.90;;;;;;5033985;28;20045;-80
2021/12/27 02:07:17;;;;;;;25.15;13.60;;;-0.90;99.90;;;;;;5033430;28;20492;-84
2021/12/27 02:09:55;;;;;;;21.63;12.43;;;-0.80;99.90;;;;;;5033738;28;20053;-80
2021/12/27 02:12:21;;;;;;;25.08;13.32;;;-0.90;99.90;;;;;;5027095;28;20121;-81
2021/12/27 02:14:46;;;;;;;24.92;13.70;;;-0.70;99.90;;;;;;5031696;28;20148;-80
2021/12/27 02:17:17;;;;;;;24.95;13.27;;;-0.90;99.90;;;;;;5015803;28;20452;-80
2021/12/27 02:19:47;;;;;;;21.63;12.40;;;-0.90;99.90;;;;;;5033737;28;20037;-81
2021/12/27 02:22:12;;;;;;;23.55;12.55;;;-0.90;99.90;;;;;;5033389;28;20492;-80
2021/12/27 02:24:40;;;;;;;24.58;12.82;;;-0.90;99.90;;;;;;5015745;28;20029;-80
2021/12/27 02:27:06;;;;;;;23.83;13.27;;;-0.90;99.90;;;;;;5031632;28;20052;-79
2021/12/27 02:29:32;;;;;;;22.30;12.98;;;-0.90;99.90;;;;;;5033027;28;20056;-83
2021/12/27 02:31:58;;;;;;;24.80;13.45;;;-0.90;99.90;;;;;;5015766;28;20061;-80
2021/12/27 02:34:23;;;;;;;23.25;13.07;;;-0.90;99.90;;;;;;5032224;28;20060;-80
2021/12/27 02:36:49;;;;;;;25.35;13.95;;;-0.90;99.90;;;;;;5032974;28;20111;-84
2021/12/27 02:39:16;;;;;;;23.20;13.05;;;-0.90;99.90;;;;;;5031920;28;20041;-80
2021/12/27 02:41:42;;;;;;;23.60;13.98;;;-0.90;99.90;;;;;;5033067;28;20045;-82
2021/12/27 02:44:07;;;;;;;24.95;13.82;;;-0.90;99.90;;;;;;5031382;28;20056;-81
2021/12/27 02:46:34;;;;;;;25.63;12.80;;;-0.90;99.90;;;;;;5032859;28;20092;-80
2021/12/27 02:49:00;;;;;;;24.23;13.43;;;-0.80;99.90;;;;;;5033036;28;20042;-80
2021/12/27 02:51:25;;;;;;;21.38;12.75;;;-0.90;99.90;;;;;;5015213;28;20054;-80
2021/12/27 02:53:51;;;;;;;23.35;12.98;;;-0.90;99.90;;;;;;5031262;28;20060;-81
2021/12/27 02:56:18;;;;;;;23.65;13.60;;;-0.90;99.90;;;;;;5032816;28;20081;-81
2021/12/27 02:58:46;;;;;;;23.35;12.85;;;-0.90;99.90;;;;;;5014969;28;20049;-89
2021/12/27 03:01:17;;;;;;;24.70;13.18;;;-0.80;99.90;;;;;;5032653;28;20059;-81
2021/12/27 03:03:43;;;;;;;22.90;12.52;;;-0.80;99.90;;;;;;5024228;28;20038;-81
2021/12/27 03:06:09;;;;;;;24.63;13.57;;;0.00;99.90;;;;;;5032751;28;20045;-81
2021/12/27 03:08:36;;;;;;;23.38;13.80;;;-0.80;99.90;;;;;;5032716;28;20041;-79
2021/12/27 03:11:04;;;;;;;23.88;13.18;;;-0.80;99.90;;;;;;5032527;28;20465;-80
2021/12/27 03:13:33;;;;;;;24.52;12.75;;;-0.80;99.90;;;;;;5032831;28;20107;-80
2021/12/27 03:16:07;;;;;;;24.88;14.15;;;-0.80;99.90;;;;;;5032560;28;20473;-80
2021/12/27 03:18:34;;;;;;;24.48;13.02;;;-0.80;99.90;;;;;;5032255;28;20507;-80
2021/12/27 03:21:02;;;;;;;23.50;14.27;;;-0.80;99.90;;;;;;5031179;28;20048;-81
2021/12/27 03:23:27;;;;;;;22.95;13.88;;;-0.80;99.90;;;;;;5030748;28;20045;-80
2021/12/27 03:25:53;;;;;;;24.67;14.32;;;-0.80;99.90;;;;;;5030151;28;20395;-81
2021/12/27 03:28:20;;;;;;;24.48;14.07;;;-0.70;99.90;;;;;;5032446;28;20092;-81
2021/12/27 03:30:47;;;;;;;25.42;14.45;;;-0.80;99.90;;;;;;5032129;28;20062;-80
2021/12/27 03:33:13;;;;;;;25.90;13.85;;;-0.70;99.90;;;;;;5031874;28;20053;-83
2021/12/27 03:35:48;;;;;;;26.58;14.55;;;-0.70;99.90;;;;;;5014220;28;20091;-81
2021/12/27 03:38:14;;;;;;;24.15;12.75;;;-0.70;99.90;;;;;;5014345;28;20056;-81
2021/12/27 03:40:40;;;;;;;23.17;12.55;;;-0.70;99.90;;;;;;5030931;28;20064;-80
2021/12/27 03:43:07;;;;;;;24.02;13.88;;;-0.70;99.90;;;;;;5031991;28;20045;-80
2021/12/27 03:45:36;;;;;;;26.35;14.45;;;-0.70;99.90;;;;;;5031734;28;20095;-80
2021/12/27 03:48:03;;;;;;;26.95;13.63;;;-0.70;99.90;;;;;;5031633;28;20052;-80
2021/12/27 03:50:29;;;;;;;25.98;13.95;;;-0.70;99.90;;;;;;5031717;28;20415;-79
2021/12/27 03:52:56;;;;;;;26.00;14.70;;;-0.70;99.90;;;;;;5031581;28;20116;-80
2021/12/27 03:55:23;;;;;;;28.27;14.70;;;-0.70;99.90;;;;;;5013768;28;20045;-80
2021/12/27 03:58:05;;;;;;;25.33;14.45;;;-0.70;99.90;;;;;;5031956;28;20116;-80
2021/12/27 04:01:16;;;;;;;26.65;13.38;;;-0.70;99.90;;;;;;5031697;28;20056;-79
2021/12/27 04:03:17;;;;;;;25.80;14.18;;;-0.60;99.90;;;;;;5030571;28;20057;-81
2021/12/27 04:05:44;;;;;;;26.38;14.52;;;-0.60;99.90;;;;;;5031367;28;20392;-81
2021/12/27 04:08:09;;;;;;;23.77;14.38;;;-0.60;99.90;;;;;;5031804;28;20049;-81
2021/12/27 04:10:41;;;;;;;28.55;14.98;;;-0.60;99.90;;;;;;5031729;28;20041;-81
2021/12/27 04:13:09;;;;;;;24.63;13.75;;;0.60;99.90;;;;;;5029990;28;20156;-81
2021/12/27 04:15:35;;;;;;;28.90;15.05;;;-0.60;99.90;;;;;;5031348;28;20045;-81
2021/12/27 04:18:02;;;;;;;28.33;14.40;;;-0.60;99.90;;;;;;5031341;28;20050;-81
2021/12/27 04:20:28;;;;;;;25.45;15.05;;;-0.60;99.90;;;;;;5029890;28;20116;-82
2021/12/27 04:22:54;;;;;;;25.88;15.02;;;-0.60;99.90;;;;;;5029397;28;20506;-81
2021/12/27 04:25:20;;;;;;;28.92;15.75;;;-0.60;99.90;;;;;;5029952;28;20060;-81
2021/12/27 04:27:48;;;;;;;24.52;14.65;;;-0.60;99.90;;;;;;5012959;28;20049;-81
2021/12/27 04:30:15;;;;;;;24.48;15.20;;;-0.60;99.90;;;;;;5013487;28;20061;-81
2021/12/27 04:32:41;;;;;;;29.30;15.95;;;-0.60;99.90;;;;;;5013531;28;20057;-81
2021/12/27 04:35:08;;;;;;;24.75;14.65;;;-0.60;99.90;;;;;;5013140;28;20039;-80
2021/12/27 04:37:34;;;;;;;27.10;14.27;;;-0.60;99.90;;;;;;5031119;28;20104;-82
2021/12/27 04:40:00;;;;;;;25.50;14.63;;;-0.60;99.90;;;;;;5013379;28;20500;-81
2021/12/27 04:42:29;;;;;;;26.50;14.85;;;-0.60;99.90;;;;;;5010195;28;20165;-80
2021/12/27 04:44:55;;;;;;;29.30;15.77;;;-0.60;99.90;;;;;;5011398;28;20507;-80
2021/12/27 04:47:21;;;;;;;28.27;16.45;;;-0.60;99.90;;;;;;5010011;28;20085;-80
2021/12/27 04:49:46;;;;;;;27.13;14.48;;;-0.60;99.90;;;;;;5011168;28;20081;-80
2021/12/27 04:52:12;;;;;;;28.30;15.45;;;-0.50;99.90;;;;;;5024219;28;20037;-80
2021/12/27 04:54:39;;;;;;;26.20;14.82;;;-0.50;99.90;;;;;;5031209;28;20045;-80
2021/12/27 04:57:05;;;;;;;27.60;15.85;;;-0.50;99.90;;;;;;5031141;28;20676;-79
2021/12/27 04:59:31;;;;;;;27.40;15.75;;;-0.50;99.90;;;;;;5031269;28;20049;-80
2021/12/27 05:01:57;;;;;;;30.73;16.55;;;-0.50;99.90;;;;;;5013681;28;20132;-80
2021/12/27 05:04:22;;;;;;;28.02;15.68;;;-0.50;99.90;;;;;;5013726;28;20141;-80
2021/12/27 05:06:48;;;;;;;27.23;15.35;;;-0.50;99.90;;;;;;5030617;28;20046;-80
2021/12/27 05:09:14;;;;;;;28.40;16.13;;;-0.50;99.90;;;;;;5030988;28;20471;-81
2021/12/27 05:11:40;;;;;;;29.60;16.15;;;-0.50;99.90;;;;;;5013067;28;20053;-80
2021/12/27 05:14:07;;;;;;;27.55;14.88;;;-0.50;99.90;;;;;;5030892;28;20103;-81
2021/12/27 05:16:32;;;;;;;26.40;14.82;;;-0.50;99.90;;;;;;5013136;28;20060;-82
2021/12/27 05:18:58;;;;;;;29.73;16.30;;;-0.50;99.90;;;;;;5029877;28;20045;-82
2021/12/27 05:21:24;;;;;;;30.65;16.92;;;-0.50;99.90;;;;;;5029204;28;20888;-83
2021/12/27 05:23:50;;;;;;;35.55;16.67;;;-0.50;99.90;;;;;;5013315;28;20085;-83
2021/12/27 05:26:16;;;;;;;29.23;16.45;;;-0.50;99.90;;;;;;5031007;28;20147;-84
2021/12/27 05:28:42;;;;;;;29.85;16.67;;;-0.50;99.90;;;;;;5013390;28;20045;-87
2021/12/27 05:31:08;;;;;;;29.52;15.95;;;-0.50;99.90;;;;;;5029731;28;20049;-83
2021/12/27 05:33:34;;;;;;;33.05;17.15;;;-0.50;99.90;;;;;;5029580;28;20058;-81
2021/12/27 05:35:59;;;;;;;30.48;15.93;;;-0.40;99.90;;;;;;5012774;28;20502;-82
2021/12/27 05:38:25;;;;;;;31.23;16.67;;;-0.40;99.90;;;;;;5012464;28;20045;-82
2021/12/27 05:40:52;;;;;;;29.40;15.63;;;-0.40;99.90;;;;;;5030603;28;20115;-82
2021/12/27 05:43:18;;;;;;;29.92;16.33;;;-0.40;99.90;;;;;;5030286;28;20391;-83
2021/12/27 05:45:44;;;;;;;28.60;16.38;;;-0.40;99.90;;;;;;5029121;28;20053;-81
2021/12/27 05:48:10;;;;;;;32.40;17.73;;;-0.40;99.90;;;;;;5030455;28;20132;-83
2021/12/27 05:50:37;;;;;;;34.17;17.05;;;-0.40;99.90;;;;;;5033020;28;20049;-82
2021/12/27 05:53:03;;;;;;;32.63;17.02;;;-0.40;99.90;;;;;;5012753;28;20093;-82
2021/12/27 05:55:29;;;;;;;33.35;17.38;;;-0.40;99.90;;;;;;4996559;28;20042;-82
2021/12/27 05:57:56;;;;;;;30.10;16.90;;;-0.40;99.90;;;;;;5022895;28;20045;-81
2021/12/27 06:00:22;;;;;;;35.92;18.27;;;-0.40;99.90;;;;;;5015967;28;20056;-84
2021/12/27 06:02:48;;;;;;;37.03;17.83;;;-0.40;99.90;;;;;;5016108;28;20049;-82
2021/12/27 06:05:17;;;;;;;35.03;17.40;;;-0.40;99.90;;;;;;5033719;28;20048;-82
2021/12/27 06:07:43;;;;;;;40.33;18.40;;;-0.40;99.90;;;;;;5016135;28;20053;-82
2021/12/27 06:10:10;;;;;;;40.15;19.45;;;-0.40;99.90;;;;;;5004064;28;20041;-83
2021/12/27 06:12:45;;;;;;;32.28;17.40;;;-0.40;99.90;;;;;;5028743;28;20056;-82
2021/12/27 06:15:13;;;;;;;39.22;17.63;;;-0.40;99.90;;;;;;5033206;28;20496;-82
2021/12/27 06:17:40;;;;;;;36.13;17.77;;;-0.40;99.90;;;;;;5015848;28;20519;-82
2021/12/27 06:20:12;;;;;;;38.28;18.00;;;-0.40;99.90;;;;;;5033136;28;20041;-82
2021/12/27 06:22:42;;;;;;;34.47;17.70;;;-0.40;99.90;;;;;;5033484;28;20088;-82
2021/12/27 06:25:08;;;;;;;44.90;18.85;;;-0.40;99.90;;;;;;5015332;28;20511;-82
2021/12/27 06:27:34;;;;;;;39.03;17.85;;;-0.30;99.90;;;;;;5031989;28;20050;-81
2021/12/27 06:30:01;;;;;;;40.03;18.60;;;-0.30;99.90;;;;;;5015468;28;20057;-81
2021/12/27 06:32:26;;;;;;;36.85;18.20;;;-0.40;99.90;;;;;;5032085;28;20057;-82
2021/12/27 06:34:52;;;;;;;35.20;17.52;;;-0.30;99.90;;;;;;5015063;28;20409;-82
2021/12/27 06:37:19;;;;;;;37.40;18.73;;;-0.30;99.90;;;;;;5033319;28;20059;-83
2021/12/27 06:39:45;;;;;;;42.47;19.83;;;-0.30;99.90;;;;;;5033060;28;20145;-82
2021/12/27 06:42:10;;;;;;;37.67;17.98;;;-0.30;99.90;;;;;;5015187;28;20458;-83
2021/12/27 06:44:37;;;;;;;40.17;19.83;;;-0.30;99.90;;;;;;5031718;28;20033;-83
2021/12/27 06:47:03;;;;;;;46.05;18.75;;;-0.30;99.90;;;;;;5031651;28;20049;-85
2021/12/27 06:49:35;;;;;;;35.83;18.00;;;-0.30;99.90;;;;;;5015348;28;20049;-82
2021/12/27 06:52:01;;;;;;;34.80;16.63;;;-0.30;99.90;;;;;;5010840;28;20068;-81
2021/12/27 06:54:27;;;;;;;35.80;16.58;;;-0.10;99.90;;;;;;5028520;28;20042;-88
2021/12/27 06:56:54;;;;;;;38.10;18.23;;;-0.20;99.90;;;;;;4978685;28;20046;-82
2021/12/27 06:59:20;;;;;;;39.22;19.40;;;-0.20;99.90;;;;;;5013093;28;20058;-82
2021/12/27 07:01:46;;;;;;;38.17;18.60;;;-0.20;99.90;;;;;;5011641;28;20504;-81
2021/12/27 07:04:12;;;;;;;39.33;18.73;;;0.10;99.90;;;;;;5028166;28;20485;-82
2021/12/27 07:06:38;;;;;;;35.45;16.50;;;-0.20;99.90;;;;;;5028202;28;20049;-81
2021/12/27 07:09:05;;;;;;;38.08;18.33;;;-0.20;99.90;;;;;;5011039;28;20266;-81
2021/12/27 07:11:31;;;;;;;37.05;17.95;;;-0.20;99.90;;;;;;5012674;28;20129;-91
2021/12/27 07:13:57;;;;;;;36.75;18.02;;;-0.20;99.90;;;;;;5012797;28;20117;-83
2021/12/27 07:16:25;;;;;;;41.38;17.75;;;-0.20;99.90;;;;;;5026846;28;20069;-81
2021/12/27 07:18:51;;;;;;;43.88;18.80;;;-0.20;99.90;;;;;;5031253;28;20183;-82
2021/12/27 07:21:17;;;;;;;38.08;18.40;;;-0.20;99.90;;;;;;5032483;28;20041;-84
2021/12/27 07:23:44;;;;;;;41.22;18.48;;;-0.20;99.90;;;;;;5032839;28;20810;-81
2021/12/27 07:26:10;;;;;;;36.28;18.67;;;-0.10;99.90;;;;;;4998503;28;20144;-82
2021/12/27 07:28:35;;;;;;;39.90;19.75;;;-0.10;99.90;;;;;;5030936;28;20505;-81
2021/12/27 07:31:01;;;;;;;44.28;18.73;;;-0.10;99.90;;;;;;5012098;28;20042;-80
2021/12/27 07:33:27;;;;;;;42.88;20.27;;;-0.10;99.90;;;;;;5014308;28;20103;-82
2021/12/27 07:35:53;;;;;;;47.17;20.90;;;0.60;99.90;;;;;;5014083;28;20089;-81
2021/12/27 07:38:22;;;;;;;55.28;22.15;;;-0.10;99.90;;;;;;4997454;28;20048;-83
2021/12/27 07:40:47;;;;;;;38.50;18.40;;;0.70;99.90;;;;;;4998025;28;20048;-83
2021/12/27 07:43:13;;;;;;;44.03;19.55;;;-0.10;99.90;;;;;;4997584;28;20037;-83
2021/12/27 07:45:39;;;;;;;43.60;19.08;;;-0.10;99.90;;;;;;5009770;28;20041;-82
2021/12/27 07:48:07;;;;;;;48.10;21.27;;;-0.10;99.90;;;;;;5012295;28;20689;-83
2021/12/27 07:50:34;;;;;;;41.72;19.30;;;-0.10;99.90;;;;;;5012046;28;20038;-84
2021/12/27 07:53:00;;;;;;;43.42;18.67;;;0.80;99.90;;;;;;5014461;28;20042;-83
2021/12/27 07:55:27;;;;;;;48.35;20.20;;;0.10;99.90;;;;;;5030286;28;20527;-84
2021/12/27 07:57:54;;;;;;;45.33;21.20;;;-0.10;99.90;;;;;;5031238;28;20052;-83
2021/12/27 08:00:20;;;;;;;51.17;20.85;;;-0.10;99.90;;;;;;5031813;28;20494;-83
2021/12/27 08:02:46;;;;;;;47.97;20.98;;;-0.10;99.90;;;;;;5031324;28;20112;-83
2021/12/27 08:05:11;;;;;;;44.05;20.13;;;-0.10;99.90;;;;;;5031588;28;20488;-83
2021/12/27 08:07:37;;;;;;;51.35;20.17;;;-0.10;99.90;;;;;;4997374;28;20037;-83
2021/12/27 08:10:04;;;;;;;41.60;20.15;;;0.00;99.90;;;;;;5013401;28;20049;-83
2021/12/27 08:12:29;;;;;;;50.67;20.80;;;0.00;99.90;;;;;;5030388;28;20041;-81
2021/12/27 08:14:55;;;;;;;48.58;20.70;;;0.00;99.90;;;;;;5030207;28;20546;-87
2021/12/27 08:17:21;;;;;;;46.72;20.63;;;0.00;99.90;;;;;;5031374;28;20050;-82
2021/12/27 08:19:47;;;;;;;56.08;22.65;;;0.00;99.90;;;;;;5010921;28;20050;-83
2021/12/27 08:22:13;;;;;;;51.08;21.33;;;0.00;99.90;;;;;;4997666;28;20053;-83
2021/12/27 08:24:39;;;;;;;48.03;21.40;;;0.00;99.90;;;;;;5031722;28;20037;-84
2021/12/27 08:27:05;;;;;;;55.00;23.95;;;0.00;99.90;;;;;;5031532;28;20041;-83
2021/12/27 08:29:31;;;;;;;48.63;22.00;;;0.00;99.90;;;;;;5030709;28;20041;-84
2021/12/27 08:31:58;;;;;;;53.63;21.73;;;0.00;99.90;;;;;;5031261;28;20051;-82
2021/12/27 08:34:23;;;;;;;56.40;21.90;;;0.00;99.90;;;;;;5029383;28;20053;-83
2021/12/27 08:36:55;;;;;;;61.08;22.10;;;0.10;99.90;;;;;;5029598;28;20038;-80
2021/12/27 08:39:20;;;;;;;61.63;22.92;;;0.10;99.90;;;;;;5009168;28;20492;-84
2021/12/27 08:41:46;;;;;;;53.47;22.17;;;0.00;99.90;;;;;;5031237;28;20156;-85
2021/12/27 08:44:15;;;;;;;58.72;22.42;;;0.10;99.90;;;;;;5031026;28;20037;-84
2021/12/27 08:46:41;;;;;;;58.40;22.85;;;0.00;99.90;;;;;;5030660;28;20160;-84
2021/12/27 08:49:10;;;;;;;58.63;20.67;;;0.10;99.90;;;;;;5031134;28;20510;-85
2021/12/27 08:51:39;;;;;;;55.47;21.45;;;0.10;99.90;;;;;;5030771;28;20077;-86
2021/12/27 08:54:06;;;;;;;52.90;21.65;;;0.60;99.90;;;;;;5031016;28;20045;-85
2021/12/27 08:56:32;;;;;;;63.17;22.67;;;0.10;99.90;;;;;;5032082;28;20107;-86
2021/12/27 08:59:10;;;;;;;62.80;23.52;;;0.10;99.90;;;;;;5028089;28;20042;-90
2021/12/27 09:01:35;;;;;;;64.30;22.45;;;0.20;99.90;;;;;;5047084;28;20045;-84
2021/12/27 09:04:02;;;;;;;59.72;21.88;;;0.20;99.90;;;;;;5046177;28;20053;-92
2021/12/27 09:06:27;;;;;;;61.28;20.63;;;0.20;99.90;;;;;;5009880;28;20041;-84
2021/12/27 09:08:53;;;;;;;67.95;23.20;;;0.20;99.90;;;;;;5037272;28;20036;-86
2021/12/27 09:11:19;;;;;;;63.80;23.00;;;0.20;99.90;;;;;;4993438;28;20096;-85
2021/12/27 09:13:44;;;;;;;71.95;24.05;;;0.20;99.90;;;;;;5023566;28;20066;-87
2021/12/27 09:16:13;;;;;;;73.13;24.10;;;0.20;99.90;;;;;;5011494;28;20057;-85
2021/12/27 09:18:38;;;;;;;74.88;24.92;;;0.20;99.90;;;;;;5023241;28;20485;-84
2021/12/27 09:21:04;;;;;;;63.40;22.90;;;0.50;99.90;;;;;;4989115;28;20040;-83
2021/12/27 09:23:30;;;;;;;67.75;23.83;;;0.20;99.90;;;;;;5009405;28;20056;-85
2021/12/27 09:25:56;;;;;;;67.25;23.70;;;0.30;99.90;;;;;;5014746;28;20038;-82
2021/12/27 09:28:22;;;;;;;70.80;25.17;;;0.70;99.90;;;;;;5007530;28;20116;-83
2021/12/27 09:30:48;;;;;;;61.20;24.02;;;0.30;99.90;;;;;;5030094;28;20092;-83
2021/12/27 09:33:14;;;;;;;72.50;23.90;;;0.30;99.90;;;;;;5033569;28;20080;-81
2021/12/27 09:35:39;;;;;;;66.10;23.73;;;0.30;99.90;;;;;;5033872;28;20045;-81
2021/12/27 09:38:05;;;;;;;64.70;24.48;;;0.80;99.90;;;;;;5034403;28;20050;-80
2021/12/27 09:40:31;;;;;;;60.22;23.40;;;0.40;99.90;;;;;;5034288;28;20096;-81
2021/12/27 09:42:58;;;;;;;60.63;21.98;;;0.40;99.90;;;;;;5034458;28;20041;-81
2021/12/27 09:45:23;;;;;;;56.70;22.13;;;0.40;99.90;;;;;;5034529;28;20049;-81
2021/12/27 09:47:51;;;;;;;55.47;21.73;;;0.50;99.90;;;;;;5016399;28;20052;-80
2021/12/27 09:50:56;;;;;;;56.03;23.00;;;0.40;99.90;;;;;;5033533;28;20049;-80
2021/12/27 09:53:22;;;;;;;42.95;19.60;;;0.40;99.90;;;;;;4992418;28;20046;-80
2021/12/27 09:55:51;;;;;;;48.70;20.63;;;0.40;99.90;;;;;;4991983;28;20042;-81
2021/12/27 09:58:17;;;;;;;45.17;18.73;;;0.50;99.90;;;;;;4991553;28;20057;-81
2021/12/27 10:00:43;;;;;;;47.38;19.95;;;0.50;99.90;;;;;;4975504;28;20097;-81
2021/12/27 10:03:09;;;;;;;55.35;21.48;;;0.50;99.90;;;;;;4975338;28;20464;-81
2021/12/27 10:05:36;;;;;;;50.00;22.15;;;0.50;99.90;;;;;;4991798;28;20090;-81
2021/12/27 10:08:03;;;;;;;56.05;22.40;;;0.50;99.90;;;;;;4993141;28;20497;-80
2021/12/27 10:10:36;;;;;;;45.55;21.00;;;0.50;99.90;;;;;;5000471;28;20095;-79
2021/12/27 10:13:09;;;;;;;51.22;20.77;;;0.50;99.90;;;;;;4994676;28;20136;-81
2021/12/27 10:15:38;;;;;;;58.35;22.67;;;0.60;99.90;;;;;;5011186;28;20513;-81
2021/12/27 10:18:23;;;;;;;51.40;20.23;;;0.60;99.90;;;;;;5010714;28;20073;-80
2021/12/27 10:20:49;;;;;;;48.92;20.20;;;1.30;99.90;;;;;;5011173;28;20085;-79
2021/12/27 10:23:19;;;;;;;53.25;21.55;;;0.60;99.90;;;;;;5014507;28;20062;-81
2021/12/27 10:25:49;;;;;;;50.40;22.60;;;0.60;99.90;;;;;;5031859;28;20049;-81
2021/12/27 10:28:15;;;;;;;63.30;22.55;;;0.70;99.90;;;;;;5033224;28;20053;-78
2021/12/27 10:30:45;;;;;;;64.85;23.02;;;0.70;99.90;;;;;;5015345;28;20072;-79
2021/12/27 10:33:15;;;;;;;75.18;23.48;;;0.70;99.90;;;;;;5033140;28;20053;-78
2021/12/27 10:35:47;;;;;;;68.35;24.17;;;0.70;99.90;;;;;;5032480;28;20087;-79
2021/12/27 10:38:15;;;;;;;71.70;24.23;;;0.70;99.90;;;;;;5004424;28;20132;-79
2021/12/27 10:41:03;;;;;;;71.22;24.40;;;0.80;99.90;;;;;;5014444;28;20041;-79
2021/12/27 10:43:56;;;;;;;69.65;24.05;;;0.80;99.90;;;;;;5027856;28;20064;-79
2021/12/27 10:46:22;;;;;;;90.47;26.23;;;0.80;99.90;;;;;;5033129;28;20076;-80
2021/12/27 10:48:55;;;;;;;70.38;23.75;;;0.80;99.90;;;;;;5031966;28;20526;-79
2021/12/27 10:51:21;;;;;;;97.75;26.40;;;0.90;99.90;;;;;;5032682;28;20506;-77
2021/12/27 10:53:52;;;;;;;76.53;24.08;;;0.90;99.90;;;;;;5033221;28;20125;-78
2021/12/27 10:56:20;;;;;;;92.40;25.13;;;0.90;99.90;;;;;;5015531;28;20037;-79
2021/12/27 10:58:56;;;;;;;96.15;25.35;;;1.00;99.90;;;;;;5022575;28;20061;-78
2021/12/27 11:01:24;;;;;;;74.82;23.45;;;1.00;99.90;;;;;;5013199;28;20049;-78
2021/12/27 11:03:58;;;;;;;79.25;25.15;;;1.00;99.90;;;;;;5013040;28;20256;-79
2021/12/27 11:06:26;;;;;;;86.15;25.35;;;1.10;99.90;;;;;;5011525;28;20053;-79
2021/12/27 11:08:53;;;;;;;71.85;25.83;;;1.10;99.90;;;;;;5013489;28;20109;-78
2021/12/27 11:11:20;;;;;;;82.93;25.27;;;1.10;99.90;;;;;;5013107;28;20046;-79
2021/12/27 11:13:52;;;;;;;74.00;25.67;;;1.10;99.90;;;;;;5013128;28;20504;-78
2021/12/27 11:16:18;;;;;;;86.55;26.83;;;1.20;99.90;;;;;;5012557;28;20060;-78
2021/12/27 11:18:44;;;;;;;92.72;26.33;;;1.20;99.90;;;;;;5012915;28;20517;-78
2021/12/27 11:21:13;;;;;;;87.13;25.48;;;1.20;99.90;;;;;;5012327;28;20429;-79
2021/12/27 11:23:41;;;;;;;90.53;28.02;;;1.20;99.90;;;;;;5012643;28;20136;-78
2021/12/27 11:26:12;;;;;;;84.47;26.63;;;1.20;99.90;;;;;;5013533;28;20129;-78
2021/12/27 11:28:40;;;;;;;97.32;27.65;;;1.30;99.90;;;;;;5011612;28;20049;-79
2021/12/27 11:31:28;;;;;;;85.25;28.27;;;1.30;99.90;;;;;;5031948;28;20067;-78
2021/12/27 11:34:01;;;;;;;72.97;25.80;;;1.30;99.90;;;;;;5032070;28;20049;-77
2021/12/27 11:36:47;;;;;;;75.88;25.10;;;1.30;99.90;;;;;;5030666;28;20096;-78
2021/12/27 11:39:25;;;;;;;83.43;25.15;;;1.30;99.90;;;;;;5030573;28;20101;-78
2021/12/27 11:42:00;;;;;;;94.65;26.50;;;1.30;99.90;;;;;;5032248;28;20084;-77
2021/12/27 11:44:44;;;;;;;79.70;25.25;;;1.40;99.90;;;;;;5031913;28;20073;-79
2021/12/27 11:47:11;;;;;;;86.43;25.05;;;1.40;99.90;;;;;;5030916;28;20508;-78
2021/12/27 11:49:37;;;;;;;73.72;25.35;;;1.40;99.90;;;;;;5031877;28;20069;-78
2021/12/27 11:52:16;;;;;;;79.60;26.42;;;1.40;99.90;;;;;;5013546;28;20100;-78
2021/12/27 11:55:01;;;;;;;79.85;26.25;;;2.40;99.90;;;;;;5031727;28;20051;-78
2021/12/27 11:57:55;;;;;;;79.53;26.20;;;1.40;99.90;;;;;;5013480;28;20499;-79
2021/12/27 12:00:30;;;;;;;84.78;25.52;;;1.50;99.90;;;;;;5030080;28;20542;-77
2021/12/27 12:02:56;;;;;;;;;;;1.50;99.90;;;;;;5032152;28;20060;-78
2021/12/27 12:05:39;;;;;;;87.25;24.45;;;1.50;99.90;;;;;;5031599;28;20376;-79
2021/12/27 12:08:06;;;;;;;85.05;24.50;;;1.50;99.90;;;;;;5030541;28;20049;-78
2021/12/27 12:10:33;;;;;;;77.22;24.05;;;1.50;99.90;;;;;;5031358;28;20785;-78
2021/12/27 12:13:20;;;;;;;96.22;25.17;;;1.50;99.90;;;;;;5031236;28;20054;-76
2021/12/27 12:15:57;;;;;;;113.28;27.50;;;1.60;99.90;;;;;;5031517;28;20048;-78
2021/12/27 12:18:22;;;;;;;92.47;26.88;;;1.60;99.90;;;;;;5031238;28;20068;-77
2021/12/27 12:20:49;;;;;;;89.55;27.05;;;1.60;99.90;;;;;;5029506;28;20443;-79
2021/12/27 12:23:14;;;;;;;89.60;26.00;;;1.70;99.90;;;;;;5031026;28;20128;-78
2021/12/27 12:25:40;;;;;;;73.20;25.80;;;1.70;99.90;;;;;;5030760;28;20537;-77
2021/12/27 12:28:07;;;;;;;78.60;25.10;;;2.10;99.90;;;;;;5029722;28;20042;-78
2021/12/27 12:30:36;;;;;;;93.95;26.48;;;1.70;99.90;;;;;;5030871;28;20057;-78
2021/12/27 12:33:16;;;;;;;104.75;24.85;;;1.70;99.90;;;;;;5031166;28;20060;-78
2021/12/27 12:35:58;;;;;;;100.68;25.55;;;1.80;99.90;;;;;;5029962;28;20049;-77